![]() |
EMODnet Physics ERDDAP
Easier access to scientific data |
log in|
Brought to you by EMODnet Physics |
| Dataset Title: | NDBC - Collection of dew point temperature (DEWT) TimeSeries - IN SITU MultiPointTimeSeriesObservation
|
| Institution: | NDBC (Dataset ID: TS_DEWT_NDBC) |
| Information: | Summary
| License
| FGDC
| ISO 19115
| Metadata
| Background
| Subset
| Data Access Form
| Make a graph
|
| Name | Last modified | Size | Description | |
|---|---|---|---|---|
| Parent Directory | - | - | ||
| 44065_TS_DEWT_012009.nc | 16-Dec-2024 02:35 | 1627516 | ||
| 44065_TS_DEWT_012010.nc | 16-Dec-2024 02:45 | 1627453 | ||
| 44065_TS_DEWT_012011.nc | 16-Dec-2024 02:53 | 1627739 | ||
| 44065_TS_DEWT_012012.nc | 16-Dec-2024 02:57 | 1476763 | ||
| 44065_TS_DEWT_012013.nc | 16-Dec-2024 03:00 | 1476607 | ||
| 44065_TS_DEWT_012015.nc | 16-Dec-2024 03:05 | 1153495 | ||
| 44065_TS_DEWT_012016.nc | 16-Dec-2024 03:08 | 1471675 | ||
| 44065_TS_DEWT_012017.nc | 16-Dec-2024 03:11 | 904611 | ||
| 44065_TS_DEWT_012018.nc | 16-Dec-2024 03:14 | 1477309 | ||
| 44065_TS_DEWT_012019.nc | 16-Dec-2024 03:20 | 1476894 | ||
| 44065_TS_DEWT_012020.nc | 16-Dec-2024 03:26 | 1477719 | ||
| 44065_TS_DEWT_012025.nc | 07-Feb-2025 09:13 | 1477013 | ||
| 44065_TS_DEWT_012026.nc | 02-Feb-2026 16:12 | 1477918 | ||
| 44065_TS_DEWT_022009.nc | 16-Dec-2024 02:36 | 1477703 | ||
| 44065_TS_DEWT_022010.nc | 16-Dec-2024 02:47 | 1474850 | ||
| 44065_TS_DEWT_022011.nc | 16-Dec-2024 02:53 | 1472867 | ||
| 44065_TS_DEWT_022012.nc | 16-Dec-2024 02:57 | 1477867 | ||
| 44065_TS_DEWT_022013.nc | 16-Dec-2024 03:00 | 1478001 | ||
| 44065_TS_DEWT_022015.nc | 16-Dec-2024 03:05 | 1153619 | ||
| 44065_TS_DEWT_022016.nc | 16-Dec-2024 03:08 | 1625819 | ||
| 44065_TS_DEWT_022017.nc | 16-Dec-2024 03:11 | 1627392 | ||
| 44065_TS_DEWT_022018.nc | 16-Dec-2024 03:14 | 604952 | ||
| 44065_TS_DEWT_022019.nc | 16-Dec-2024 03:20 | 1460079 | ||
| 44065_TS_DEWT_022020.nc | 16-Dec-2024 03:26 | 1627687 | ||
| 44065_TS_DEWT_022025.nc | 01-Mar-2025 05:27 | 1627786 | ||
| 44065_TS_DEWT_022026.nc | 01-Mar-2026 04:40 | 1626112 | ||
| 44065_TS_DEWT_032009.nc | 16-Dec-2024 02:36 | 1626988 | ||
| 44065_TS_DEWT_032010.nc | 16-Dec-2024 02:48 | 1627614 | ||
| 44065_TS_DEWT_032011.nc | 16-Dec-2024 02:53 | 1627692 | ||
| 44065_TS_DEWT_032012.nc | 16-Dec-2024 02:57 | 1475811 | ||
| 44065_TS_DEWT_032013.nc | 16-Dec-2024 03:00 | 1477003 | ||
| 44065_TS_DEWT_032014.nc | 16-Dec-2024 03:04 | 1476159 | ||
| 44065_TS_DEWT_032015.nc | 16-Dec-2024 03:06 | 1627061 | ||
| 44065_TS_DEWT_032016.nc | 16-Dec-2024 03:08 | 1475761 | ||
| 44065_TS_DEWT_032017.nc | 16-Dec-2024 03:12 | 1152897 | ||
| 44065_TS_DEWT_032018.nc | 16-Dec-2024 03:15 | 1627578 | ||
| 44065_TS_DEWT_032019.nc | 16-Dec-2024 03:21 | 1476049 | ||
| 44065_TS_DEWT_032020.nc | 16-Dec-2024 03:27 | 1627653 | ||
| 44065_TS_DEWT_032025.nc | 02-Apr-2025 04:12 | 1627616 | ||
| 44065_TS_DEWT_032026.nc | 25-Mar-2026 05:03 | 1626630 | ||
| 44065_TS_DEWT_042009.nc | 16-Dec-2024 02:36 | 1627200 | ||
| 44065_TS_DEWT_042010.nc | 16-Dec-2024 02:50 | 1626691 | ||
| 44065_TS_DEWT_042011.nc | 16-Dec-2024 02:54 | 1627476 | ||
| 44065_TS_DEWT_042012.nc | 16-Dec-2024 02:57 | 1627312 | ||
| 44065_TS_DEWT_042013.nc | 16-Dec-2024 03:01 | 1626074 | ||
| 44065_TS_DEWT_042014.nc | 16-Dec-2024 03:04 | 1627582 | ||
| 44065_TS_DEWT_042015.nc | 16-Dec-2024 03:06 | 1464996 | ||
| 44065_TS_DEWT_042016.nc | 16-Dec-2024 03:09 | 1627847 | ||
| 44065_TS_DEWT_042017.nc | 16-Dec-2024 03:12 | 1627801 | ||
| 44065_TS_DEWT_042018.nc | 16-Dec-2024 03:15 | 1153314 | ||
| 44065_TS_DEWT_042019.nc | 16-Dec-2024 03:21 | 1470719 | ||
| 44065_TS_DEWT_042020.nc | 16-Dec-2024 03:27 | 1470280 | ||
| 44065_TS_DEWT_042025.nc | 01-May-2025 03:39 | 1470774 | ||
| 44065_TS_DEWT_052009.nc | 16-Dec-2024 02:36 | 1471815 | ||
| 44065_TS_DEWT_052010.nc | 16-Dec-2024 02:50 | 1470864 | ||
| 44065_TS_DEWT_052011.nc | 16-Dec-2024 02:54 | 1470657 | ||
| 44065_TS_DEWT_052012.nc | 16-Dec-2024 02:58 | 1470239 | ||
| 44065_TS_DEWT_052015.nc | 16-Dec-2024 03:06 | 602385 | ||
| 44065_TS_DEWT_052016.nc | 16-Dec-2024 03:09 | 1470547 | ||
| 44065_TS_DEWT_052017.nc | 16-Dec-2024 03:12 | 1470725 | ||
| 44065_TS_DEWT_052018.nc | 16-Dec-2024 03:16 | 1470589 | ||
| 44065_TS_DEWT_052019.nc | 16-Dec-2024 03:22 | 1474004 | ||
| 44065_TS_DEWT_052020.nc | 16-Dec-2024 03:28 | 1150533 | ||
| 44065_TS_DEWT_052025.nc | 01-Jun-2025 03:39 | 1470779 | ||
| 44065_TS_DEWT_062009.nc | 16-Dec-2024 02:37 | 1470242 | ||
| 44065_TS_DEWT_062010.nc | 16-Dec-2024 02:50 | 420848 | ||
| 44065_TS_DEWT_062011.nc | 16-Dec-2024 02:54 | 1627762 | ||
| 44065_TS_DEWT_062012.nc | 16-Dec-2024 02:58 | 1478704 | ||
| 44065_TS_DEWT_062015.nc | 16-Dec-2024 03:06 | 1625322 | ||
| 44065_TS_DEWT_062016.nc | 16-Dec-2024 03:09 | 1474843 | ||
| 44065_TS_DEWT_062017.nc | 16-Dec-2024 03:12 | 1627425 | ||
| 44065_TS_DEWT_062018.nc | 16-Dec-2024 03:16 | 1626649 | ||
| 44065_TS_DEWT_062019.nc | 16-Dec-2024 03:22 | 1476850 | ||
| 44065_TS_DEWT_062020.nc | 16-Dec-2024 03:28 | 1162499 | ||
| 44065_TS_DEWT_062025.nc | 01-Jul-2025 03:39 | 1627508 | ||
| 44065_TS_DEWT_072009.nc | 16-Dec-2024 02:37 | 1627600 | ||
| 44065_TS_DEWT_072010.nc | 16-Dec-2024 02:51 | 1627470 | ||
| 44065_TS_DEWT_072011.nc | 16-Dec-2024 02:55 | 1627798 | ||
| 44065_TS_DEWT_072012.nc | 16-Dec-2024 02:58 | 1160059 | ||
| 44065_TS_DEWT_072015.nc | 16-Dec-2024 03:06 | 1627517 | ||
| 44065_TS_DEWT_072016.nc | 16-Dec-2024 03:09 | 1627860 | ||
| 44065_TS_DEWT_072017.nc | 16-Dec-2024 03:12 | 1473465 | ||
| 44065_TS_DEWT_072018.nc | 16-Dec-2024 03:17 | 1473973 | ||
| 44065_TS_DEWT_072019.nc | 16-Dec-2024 03:23 | 1473957 | ||
| 44065_TS_DEWT_072025.nc | 01-Aug-2025 03:42 | 1477165 | ||
| 44065_TS_DEWT_082009.nc | 16-Dec-2024 02:38 | 1474063 | ||
| 44065_TS_DEWT_082010.nc | 16-Dec-2024 02:51 | 1477963 | ||
| 44065_TS_DEWT_082011.nc | 16-Dec-2024 02:55 | 1475511 | ||
| 44065_TS_DEWT_082012.nc | 16-Dec-2024 02:59 | 1476893 | ||
| 44065_TS_DEWT_082015.nc | 16-Dec-2024 03:07 | 1477173 | ||
| 44065_TS_DEWT_082016.nc | 16-Dec-2024 03:10 | 1477584 | ||
| 44065_TS_DEWT_082017.nc | 16-Dec-2024 03:13 | 1152585 | ||
| 44065_TS_DEWT_082018.nc | 16-Dec-2024 03:17 | 1477882 | ||
| 44065_TS_DEWT_082019.nc | 16-Dec-2024 03:23 | 1477640 | ||
| 44065_TS_DEWT_082025.nc | 01-Sep-2025 03:50 | 1477946 | ||
| 44065_TS_DEWT_092009.nc | 16-Dec-2024 02:39 | 1477207 | ||
| 44065_TS_DEWT_092010.nc | 16-Dec-2024 02:51 | 1626916 | ||
| 44065_TS_DEWT_092011.nc | 16-Dec-2024 02:55 | 1627829 | ||
| 44065_TS_DEWT_092012.nc | 16-Dec-2024 02:59 | 1627807 | ||
| 44065_TS_DEWT_092014.nc | 16-Dec-2024 03:04 | 1627786 | ||
| 44065_TS_DEWT_092015.nc | 16-Dec-2024 03:07 | 1627115 | ||
| 44065_TS_DEWT_092016.nc | 16-Dec-2024 03:10 | 1627719 | ||
| 44065_TS_DEWT_092017.nc | 16-Dec-2024 03:13 | 1627787 | ||
| 44065_TS_DEWT_092018.nc | 16-Dec-2024 03:18 | 1472149 | ||
| 44065_TS_DEWT_092019.nc | 16-Dec-2024 03:24 | 1478263 | ||
| 44065_TS_DEWT_092025.nc | 01-Oct-2025 03:26 | 1627220 | ||
| 44065_TS_DEWT_102008.nc | 16-Dec-2024 02:34 | 1626625 | ||
| 44065_TS_DEWT_102009.nc | 16-Dec-2024 02:41 | 1627717 | ||
| 44065_TS_DEWT_102010.nc | 16-Dec-2024 02:52 | 1625266 | ||
| 44065_TS_DEWT_102011.nc | 16-Dec-2024 02:56 | 1627763 | ||
| 44065_TS_DEWT_102012.nc | 16-Dec-2024 02:59 | 1627866 | ||
| 44065_TS_DEWT_102014.nc | 16-Dec-2024 03:04 | 437452 | ||
| 44065_TS_DEWT_102015.nc | 16-Dec-2024 03:07 | 1472905 | ||
| 44065_TS_DEWT_102016.nc | 16-Dec-2024 03:10 | 1477002 | ||
| 44065_TS_DEWT_102017.nc | 16-Dec-2024 03:13 | 1476980 | ||
| 44065_TS_DEWT_102018.nc | 16-Dec-2024 03:18 | 1477943 | ||
| 44065_TS_DEWT_102019.nc | 16-Dec-2024 03:24 | 1477222 | ||
| 44065_TS_DEWT_102024.nc | 12-Jan-2025 20:13 | 1477807 | ||
| 44065_TS_DEWT_102025.nc | 01-Nov-2025 04:40 | 1477738 | ||
| 44065_TS_DEWT_112008.nc | 16-Dec-2024 02:35 | 1477909 | ||
| 44065_TS_DEWT_112009.nc | 16-Dec-2024 02:42 | 1477792 | ||
| 44065_TS_DEWT_112010.nc | 16-Dec-2024 02:52 | 1477247 | ||
| 44065_TS_DEWT_112011.nc | 16-Dec-2024 02:56 | 1477698 | ||
| 44065_TS_DEWT_112012.nc | 16-Dec-2024 03:00 | 1477651 | ||
| 44065_TS_DEWT_112014.nc | 16-Dec-2024 03:05 | 1477977 | ||
| 44065_TS_DEWT_112015.nc | 16-Dec-2024 03:07 | 1477009 | ||
| 44065_TS_DEWT_112016.nc | 16-Dec-2024 03:11 | 1627438 | ||
| 44065_TS_DEWT_112017.nc | 16-Dec-2024 03:13 | 1476240 | ||
| 44065_TS_DEWT_112018.nc | 16-Dec-2024 03:19 | 1627669 | ||
| 44065_TS_DEWT_112019.nc | 16-Dec-2024 03:25 | 1627764 | ||
| 44065_TS_DEWT_112024.nc | 17-Jan-2025 14:02 | 995454 | ||
| 44065_TS_DEWT_112025.nc | 01-Dec-2025 04:46 | 1627248 | ||
| 44065_TS_DEWT_122008.nc | 16-Dec-2024 02:35 | 1627504 | ||
| 44065_TS_DEWT_122009.nc | 16-Dec-2024 02:44 | 1626038 | ||
| 44065_TS_DEWT_122010.nc | 16-Dec-2024 02:52 | 1150487 | ||
| 44065_TS_DEWT_122011.nc | 16-Dec-2024 02:56 | 1626490 | ||
| 44065_TS_DEWT_122012.nc | 16-Dec-2024 03:00 | 1626517 | ||
| 44065_TS_DEWT_122014.nc | 16-Dec-2024 03:05 | 1626864 | ||
| 44065_TS_DEWT_122015.nc | 16-Dec-2024 03:08 | 1625257 | ||
| 44065_TS_DEWT_122016.nc | 16-Dec-2024 03:11 | 1626478 | ||
| 44065_TS_DEWT_122017.nc | 16-Dec-2024 03:14 | 1627824 | ||
| 44065_TS_DEWT_122018.nc | 16-Dec-2024 03:19 | 1627794 | ||
| 44065_TS_DEWT_122019.nc | 16-Dec-2024 03:25 | 1627775 | ||
| 44065_TS_DEWT_122024.nc | 22-Jan-2025 22:07 | 1626400 | ||
| 44065_TS_DEWT_122025.nc | 01-Jan-2026 05:11 | 1627443 | ||